createdAt,value
2023-04-21T03:02:18.537Z,100809.12
2023-04-21T03:04:48.585Z,100811.07
2023-04-21T03:07:17.661Z,100808.17
2023-04-21T03:09:46.813Z,100808.63
2023-04-21T03:12:15.742Z,100808.32
2023-04-21T03:14:46.609Z,100809.73
2023-04-21T03:17:15.492Z,100808.46
2023-04-21T03:19:43.880Z,100803.06
2023-04-21T03:22:13.704Z,100805.99
2023-04-21T03:24:42.915Z,100808.58
2023-04-21T03:27:11.820Z,100802.48
2023-04-21T03:29:40.885Z,100803.15
2023-04-21T03:32:09.901Z,100805.48
2023-04-21T03:34:38.336Z,100805.16
2023-04-21T03:37:07.311Z,100807.52
2023-04-21T03:39:36.206Z,100806.63
2023-04-21T03:42:05.602Z,100807.11
2023-04-21T03:44:35.785Z,100803.52
2023-04-21T03:47:04.739Z,100803.42
2023-04-21T03:49:36.853Z,100801.13
2023-04-21T03:52:06.428Z,100799.41
2023-04-21T03:54:36.083Z,100801.95
2023-04-21T03:57:04.903Z,100804.83
2023-04-21T03:59:33.364Z,100807.61
2023-04-21T04:02:02.576Z,100810.47
2023-04-21T04:04:32.670Z,100808.14
2023-04-21T04:07:01.832Z,100805.39
2023-04-21T04:09:31.406Z,100806.88
2023-04-21T04:12:00.431Z,100807.21
2023-04-21T04:14:29.366Z,100809.13
2023-04-21T04:16:59.317Z,100811.17
2023-04-21T04:19:32.367Z,100811.95
2023-04-21T04:22:01.515Z,100814.16
2023-04-21T04:24:31.502Z,100814.28
2023-04-21T04:27:02.736Z,100812.81
2023-04-21T04:29:32.187Z,100818.90
2023-04-21T04:32:02.098Z,100818.52
2023-04-21T04:34:31.521Z,100818.00
2023-04-21T04:37:02.697Z,100820.98
2023-04-21T04:39:32.292Z,100818.39
2023-04-21T04:42:01.982Z,100820.80
2023-04-21T04:44:30.917Z,100819.54
2023-04-21T04:46:59.166Z,100822.08
2023-04-21T04:49:28.217Z,100823.59
2023-04-21T04:51:57.186Z,100824.26
2023-04-21T04:54:25.944Z,100821.09
2023-04-21T04:56:54.257Z,100820.35
2023-04-21T04:59:22.710Z,100818.80
2023-04-21T05:01:51.849Z,100818.46
2023-04-21T05:04:21.557Z,100815.28
2023-04-21T05:06:50.889Z,100811.66
2023-04-21T05:09:19.756Z,100810.37
2023-04-21T05:11:48.719Z,100807.93
2023-04-21T05:14:17.133Z,100807.81
2023-04-21T05:16:45.463Z,100806.57
2023-04-21T05:19:16.264Z,100801.13
2023-04-21T05:21:46.590Z,100803.83
2023-04-21T05:24:15.905Z,100800.27
2023-04-21T05:26:44.126Z,100799.50
2023-04-21T05:29:12.524Z,100798.77
2023-04-21T05:31:41.368Z,100798.78
2023-04-21T05:34:10.127Z,100796.32
2023-04-21T05:36:42.582Z,100788.62
2023-04-21T05:39:10.853Z,100791.45
2023-04-21T05:41:38.985Z,100788.60
2023-04-21T05:44:07.871Z,100792.49
2023-04-21T05:46:36.965Z,100794.09
2023-04-21T05:49:05.648Z,100793.59
2023-04-21T05:51:34.070Z,100795.34
2023-04-21T05:54:03.285Z,100798.73
2023-04-21T05:56:31.740Z,100797.09
2023-04-21T05:59:00.120Z,100796.93
2023-04-21T06:01:28.714Z,100791.30
2023-04-21T06:03:58.253Z,100792.38
2023-04-21T06:06:28.308Z,100789.70
2023-04-21T06:08:57.535Z,100789.09
2023-04-21T06:11:26.002Z,100789.59
2023-04-21T06:13:59.259Z,100789.91
2023-04-21T06:16:28.165Z,100789.48
2023-04-21T06:18:59.599Z,100790.57
2023-04-21T06:21:28.526Z,100790.34
2023-04-21T06:23:57.322Z,100788.55
2023-04-21T06:26:25.748Z,100790.91
2023-04-21T06:28:54.236Z,100789.90
2023-04-21T06:31:22.538Z,100795.42
2023-04-21T06:33:50.703Z,100793.73
2023-04-21T06:36:18.942Z,100793.91
2023-04-21T06:38:48.036Z,100793.56
2023-04-21T06:41:17.290Z,100792.17
2023-04-21T06:43:46.328Z,100794.07
2023-04-21T06:46:15.525Z,100800.83
2023-04-21T06:48:44.707Z,100800.79
2023-04-21T06:51:13.941Z,100803.37
2023-04-21T06:53:43.369Z,100799.46
2023-04-21T06:56:11.720Z,100797.41
2023-04-21T06:58:40.653Z,100798.00
2023-04-21T07:01:09.226Z,100794.20
2023-04-21T07:03:37.813Z,100794.64
2023-04-21T07:06:07.187Z,100797.60
2023-04-21T07:08:36.284Z,100794.12
2023-04-21T07:11:05.330Z,100791.06
2023-04-21T07:13:34.189Z,100793.77
2023-04-21T07:16:02.992Z,100793.74
2023-04-21T07:18:34.061Z,100791.99
2023-04-21T07:21:02.348Z,100788.00
2023-04-21T07:23:31.901Z,100789.91
2023-04-21T07:26:01.054Z,100787.48
2023-04-21T07:28:29.870Z,100785.66
2023-04-21T07:30:59.990Z,100782.06
2023-04-21T07:33:29.445Z,100776.45
2023-04-21T07:35:58.454Z,100776.59
2023-04-21T07:38:27.012Z,100777.60
2023-04-21T07:40:55.813Z,100778.98
2023-04-21T07:43:25.415Z,100774.95
2023-04-21T07:45:54.350Z,100775.50
2023-04-21T07:48:23.095Z,100773.40
2023-04-21T07:50:52.238Z,100772.48
2023-04-21T07:53:21.660Z,100772.48
2023-04-21T07:55:50.847Z,100769.02
2023-04-21T07:58:20.049Z,100768.20
2023-04-21T08:00:49.822Z,100768.33
2023-04-21T08:03:20.385Z,100763.92
2023-04-21T08:05:52.095Z,100758.20
2023-04-21T08:08:22.746Z,100750.10
2023-04-21T08:10:51.695Z,100754.64
2023-04-21T08:13:22.246Z,100750.86
2023-04-21T08:15:54.373Z,100754.92
2023-04-21T08:18:23.774Z,100755.90
2023-04-21T08:20:53.348Z,100755.30
2023-04-21T08:23:22.439Z,100756.89
2023-04-21T08:25:51.563Z,100753.29
2023-04-21T08:28:20.707Z,100753.38
2023-04-21T08:30:49.615Z,100751.23
2023-04-21T08:33:18.716Z,100751.63
2023-04-21T08:35:58.891Z,100752.91
2023-04-21T08:38:34.494Z,100755.14
2023-04-21T08:41:04.180Z,100755.64
2023-04-21T08:43:34.011Z,100757.99
2023-04-21T08:46:07.851Z,100750.48
2023-04-21T08:48:38.653Z,100752.80
2023-04-21T08:51:10.376Z,100755.60
2023-04-21T08:53:41.909Z,100749.67
2023-04-21T08:56:11.829Z,100754.16
2023-04-21T08:58:42.171Z,100752.80
2023-04-21T09:01:12.568Z,100744.67
2023-04-21T09:03:41.033Z,100739.52
2023-04-21T09:06:11.407Z,100737.48
2023-04-21T09:08:43.585Z,100734.79
2023-04-21T09:11:15.752Z,100736.98
2023-04-21T09:13:45.130Z,100731.80
2023-04-21T09:16:24.298Z,100728.61
2023-04-21T09:18:57.590Z,100727.64
2023-04-21T09:21:30.139Z,100722.86
2023-04-21T09:24:05.150Z,100719.10
2023-04-21T09:26:37.169Z,100723.05
2023-04-21T09:29:08.501Z,100721.63
2023-04-21T09:31:37.329Z,100716.27
2023-04-21T09:34:17.429Z,100709.99
2023-04-21T09:36:47.495Z,100705.39
2023-04-21T09:41:49.392Z,100704.19
2023-04-21T09:44:18.957Z,100703.09
2023-04-21T09:46:49.082Z,100706.74
2023-04-21T09:49:19.119Z,100704.40
2023-04-21T09:52:16.834Z,100700.45
2023-04-21T09:54:43.643Z,100695.91
2023-04-21T09:57:15.078Z,100696.93
2023-04-21T09:59:46.631Z,100699.21
2023-04-21T10:02:18.337Z,100700.17
2023-04-21T10:04:47.936Z,100697.61
2023-04-21T10:07:16.790Z,100695.56
2023-04-21T10:09:54.913Z,100700.15
2023-04-21T10:12:24.402Z,100697.06
2023-04-21T10:14:56.164Z,100694.00
2023-04-21T10:17:27.436Z,100684.99
2023-04-21T10:19:59.200Z,100682.09
2023-04-21T10:22:32.437Z,100688.82
2023-04-21T10:25:02.674Z,100686.20
2023-04-21T10:27:43.696Z,100684.86
2023-04-21T10:30:23.090Z,100681.89
2023-04-21T10:33:12.354Z,100687.25
2023-04-21T10:36:00.364Z,100678.33
2023-04-21T10:38:36.800Z,100669.57
2023-04-21T10:41:24.125Z,100669.25
2023-04-21T10:43:53.113Z,100666.37
2023-04-21T10:46:35.284Z,100665.13
2023-04-21T10:49:10.424Z,100666.89
2023-04-21T10:51:58.348Z,100667.27
2023-04-21T10:54:27.552Z,100665.60
2023-04-21T10:56:56.806Z,100657.95
2023-04-21T10:59:27.373Z,100651.86
2023-04-21T11:01:56.520Z,100651.01
2023-04-21T11:04:26.284Z,100649.67
2023-04-21T11:07:09.382Z,100642.70
2023-04-21T11:09:38.131Z,100643.06
2023-04-21T11:12:18.578Z,100644.23
2023-04-21T11:14:50.683Z,100641.64
2023-04-21T11:17:19.914Z,100641.40
2023-04-21T11:19:57.916Z,100636.00
2023-04-21T11:22:27.260Z,100626.20
2023-04-21T11:24:56.970Z,100620.71
2023-04-21T11:27:29.989Z,100624.09
2023-04-21T11:29:58.964Z,100618.97
2023-04-21T11:32:27.626Z,100617.08
2023-04-21T11:34:56.553Z,100612.96
2023-04-21T11:37:27.697Z,100608.43
2023-04-21T11:40:05.765Z,100604.27
2023-04-21T11:42:34.841Z,100601.25
2023-04-21T11:45:04.392Z,100598.34
2023-04-21T11:47:33.717Z,100592.63
2023-04-21T11:50:03.244Z,100601.20
2023-04-21T11:52:40.139Z,100606.45
2023-04-21T11:55:13.556Z,100602.31
2023-04-21T11:57:43.420Z,100597.04
2023-04-21T12:00:14.730Z,100597.34
2023-04-21T12:02:44.044Z,100591.08
2023-04-21T12:05:14.226Z,100584.20
2023-04-21T12:07:44.578Z,100582.05
2023-04-21T12:10:15.198Z,100580.74
2023-04-21T12:12:44.428Z,100579.14
2023-04-21T12:15:17.208Z,100573.69
2023-04-21T12:17:49.882Z,100568.46
2023-04-21T12:20:20.747Z,100564.04
2023-04-21T12:22:50.465Z,100562.27
2023-04-21T12:25:19.009Z,100557.31
2023-04-21T12:27:58.395Z,100552.75
2023-04-21T12:30:27.311Z,100553.31
2023-04-21T12:32:57.405Z,100551.66
2023-04-21T12:35:26.178Z,100550.48
2023-04-21T12:37:55.842Z,100548.18
2023-04-21T12:40:24.983Z,100540.19
2023-04-21T12:42:54.069Z,100532.16
2023-04-21T12:45:22.205Z,100532.34
2023-04-21T12:47:51.520Z,100530.95
2023-04-21T12:50:20.706Z,100526.27
2023-04-21T12:52:52.246Z,100529.29
2023-04-21T12:55:21.829Z,100524.53
2023-04-21T12:57:51.668Z,100522.95
2023-04-21T13:00:20.716Z,100527.11
2023-04-21T13:02:49.918Z,100517.40
2023-04-21T13:05:19.056Z,100517.19
2023-04-21T13:07:47.614Z,100513.69
2023-04-21T13:10:16.510Z,100522.05
2023-04-21T13:12:45.512Z,100515.03
2023-04-21T13:15:13.795Z,100512.42
2023-04-21T13:17:43.262Z,100510.20
2023-04-21T13:20:12.487Z,100506.89
2023-04-21T13:22:41.070Z,100503.02
2023-04-21T13:25:10.276Z,100505.62
2023-04-21T13:27:40.469Z,100501.32
2023-04-21T13:30:11.731Z,100493.93
2023-04-21T13:32:41.381Z,100492.38
2023-04-21T13:35:11.239Z,100496.59
2023-04-21T13:37:40.290Z,100494.79
2023-04-21T13:40:10.711Z,100486.27
2023-04-21T13:42:40.037Z,100485.17
2023-04-21T13:45:09.049Z,100475.11
2023-04-21T13:47:38.329Z,100468.55
2023-04-21T13:50:07.722Z,100469.46
2023-04-21T13:52:36.949Z,100468.73
2023-04-21T13:55:06.818Z,100464.65
2023-04-21T13:57:35.634Z,100460.34
2023-04-21T14:00:06.879Z,100456.84
2023-04-21T14:02:36.506Z,100458.75
2023-04-21T14:05:11.211Z,100456.39
2023-04-21T14:07:40.270Z,100452.02
2023-04-21T14:10:08.886Z,100447.34
2023-04-21T14:12:37.615Z,100445.27
2023-04-21T14:15:07.292Z,100441.64
2023-04-21T14:17:36.318Z,100436.20
2023-04-21T14:20:05.212Z,100438.69
2023-04-21T14:22:33.292Z,100435.57
2023-04-21T14:25:02.358Z,100432.59
2023-04-21T14:27:31.560Z,100430.47
2023-04-21T14:30:01.288Z,100425.11
2023-04-21T14:32:30.139Z,100432.35
2023-04-21T14:35:01.037Z,100423.48
2023-04-21T14:37:29.755Z,100422.55
2023-04-21T14:39:58.691Z,100418.98
2023-04-21T14:42:27.122Z,100415.60
2023-04-21T14:44:55.424Z,100414.89
2023-04-21T14:47:24.589Z,100417.67
2023-04-21T14:49:55.849Z,100414.75
2023-04-21T14:52:25.991Z,100411.80
2023-04-21T14:54:55.082Z,100404.92
2023-04-21T14:57:24.831Z,100406.27
2023-04-21T14:59:53.630Z,100402.05
2023-04-21T15:02:23.159Z,100396.63
2023-04-21T15:04:52.973Z,100393.52
2023-04-21T15:07:24.759Z,100390.95
2023-04-21T15:09:55.755Z,100395.31
2023-04-21T15:12:24.396Z,100394.14
2023-04-21T15:14:53.331Z,100390.59
2023-04-21T15:17:22.986Z,100383.48
2023-04-21T15:19:51.881Z,100382.24
2023-04-21T15:22:20.455Z,100380.11
2023-04-21T15:24:49.322Z,100379.74
2023-04-21T15:27:18.231Z,100377.02
2023-04-21T15:29:46.907Z,100374.81
2023-04-21T15:32:15.591Z,100378.10
2023-04-21T15:34:44.911Z,100374.72
2023-04-21T15:37:15.391Z,100372.69
2023-04-21T15:39:44.274Z,100366.23
2023-04-21T15:42:13.451Z,100364.04
2023-04-21T15:44:42.568Z,100367.48
2023-04-21T15:47:11.994Z,100363.48
2023-04-21T15:49:40.847Z,100363.33
2023-04-21T15:52:09.927Z,100365.16
2023-04-21T15:54:38.470Z,100365.01
2023-04-21T15:57:10.176Z,100366.80
2023-04-21T15:59:39.203Z,100370.42
2023-04-21T16:02:08.296Z,100367.27
2023-04-21T16:04:38.117Z,100365.89
2023-04-21T16:07:07.599Z,100363.67
2023-04-21T16:09:36.799Z,100366.61
2023-04-21T16:12:10.746Z,100364.27
2023-04-21T16:14:54.481Z,100358.77
2023-04-21T16:17:26.657Z,100361.05
2023-04-21T16:19:56.177Z,100359.66
2023-04-21T16:22:25.078Z,100361.06
2023-04-21T16:24:54.360Z,100359.16
2023-04-21T16:27:22.799Z,100362.05
2023-04-21T16:29:51.862Z,100364.17
2023-04-21T16:32:20.557Z,100367.35
2023-04-21T16:34:49.365Z,100364.97
2023-04-21T16:37:18.429Z,100366.25
2023-04-21T16:39:47.343Z,100366.91
2023-04-21T16:42:16.415Z,100362.45
2023-04-21T16:44:44.742Z,100359.64
2023-04-21T16:47:14.254Z,100359.45
2023-04-21T16:49:42.776Z,100362.20
2023-04-21T16:52:11.674Z,100359.49
2023-04-21T16:54:40.102Z,100358.06
2023-04-21T16:57:10.439Z,100355.36
2023-04-21T16:59:38.928Z,100353.83
2023-04-21T17:02:07.383Z,100351.50
2023-04-21T17:04:37.725Z,100352.05
2023-04-21T17:07:07.343Z,100352.63
2023-04-21T17:09:36.394Z,100347.69
2023-04-21T17:12:04.768Z,100348.08
2023-04-21T17:14:33.280Z,100347.42
2023-04-21T17:17:01.591Z,100348.58
2023-04-21T17:19:30.223Z,100346.34
2023-04-21T17:21:58.889Z,100344.94
2023-04-21T17:24:33.062Z,100348.37
2023-04-21T17:27:07.138Z,100350.77
2023-04-21T17:29:36.662Z,100351.14
2023-04-21T17:32:05.725Z,100349.94
2023-04-21T17:34:34.102Z,100353.91
2023-04-21T17:37:04.290Z,100352.19
2023-04-21T17:39:33.086Z,100351.52
2023-04-21T17:42:02.886Z,100356.59
2023-04-21T17:44:31.367Z,100355.32
2023-04-21T17:47:00.231Z,100357.61
2023-04-21T17:49:28.456Z,100356.27
2023-04-21T17:51:57.008Z,100358.69
2023-04-21T17:54:25.739Z,100359.16
2023-04-21T17:56:53.965Z,100363.04
2023-04-21T17:59:22.273Z,100361.02
2023-04-21T18:01:51.263Z,100369.80
2023-04-21T18:04:19.624Z,100368.44
2023-04-21T18:06:48.338Z,100371.50
2023-04-21T18:09:17.298Z,100375.75
2023-04-21T18:11:45.916Z,100374.98
2023-04-21T18:14:15.690Z,100381.67
2023-04-21T18:16:44.444Z,100380.37
2023-04-21T18:19:13.184Z,100381.67
2023-04-21T18:21:42.063Z,100384.79
2023-04-21T18:24:10.694Z,100388.45
2023-04-21T18:26:39.459Z,100390.60
2023-04-21T18:29:08.460Z,100388.30
2023-04-21T18:31:36.841Z,100389.30
2023-04-21T18:34:06.901Z,100390.05
2023-04-21T18:36:37.005Z,100386.86
2023-04-21T18:39:07.549Z,100384.10
2023-04-21T18:41:36.756Z,100385.34
2023-04-21T18:44:08.560Z,100387.01
2023-04-21T18:46:37.747Z,100384.14
2023-04-21T18:49:06.804Z,100382.71
2023-04-21T18:51:36.868Z,100381.41
2023-04-21T18:54:07.024Z,100380.63
2023-04-21T18:56:36.077Z,100378.08
2023-04-21T18:59:04.684Z,100382.85
2023-04-21T19:01:32.878Z,100382.77
2023-04-21T19:04:01.831Z,100387.60
2023-04-21T19:06:31.134Z,100386.53
2023-04-21T19:08:59.505Z,100386.85
2023-04-21T19:11:29.138Z,100388.59
2023-04-21T19:13:57.870Z,100383.69
2023-04-21T19:16:27.873Z,100385.92
2023-04-21T19:18:57.218Z,100381.83
2023-04-21T19:21:26.376Z,100380.10
2023-04-21T19:23:57.391Z,100378.82
2023-04-21T19:26:27.198Z,100380.60
2023-04-21T19:28:55.459Z,100380.04
2023-04-21T19:31:24.659Z,100375.45
2023-04-21T19:33:53.072Z,100376.40
2023-04-21T19:36:21.836Z,100374.00
2023-04-21T19:38:50.438Z,100372.21
2023-04-21T19:41:18.684Z,100371.12
2023-04-21T19:43:46.857Z,100371.03
2023-04-21T19:46:15.853Z,100368.59
2023-04-21T19:48:44.176Z,100367.05
2023-04-21T19:51:12.318Z,100365.39
2023-04-21T19:53:40.757Z,100365.71
2023-04-21T19:56:09.294Z,100367.11
2023-04-21T19:58:40.305Z,100364.20
2023-04-21T20:01:09.882Z,100368.97
2023-04-21T20:03:38.422Z,100369.15
2023-04-21T20:06:06.999Z,100371.92
2023-04-21T20:08:36.117Z,100373.27
2023-04-21T20:11:04.671Z,100373.19
2023-04-21T20:13:32.968Z,100378.37
2023-04-21T20:16:02.510Z,100383.59
2023-04-21T20:18:31.912Z,100380.83
2023-04-21T20:21:01.171Z,100382.70
2023-04-21T20:23:30.290Z,100386.39
2023-04-21T20:25:58.888Z,100389.97
2023-04-21T20:28:27.769Z,100391.56
2023-04-21T20:30:59.047Z,100387.33
2023-04-21T20:33:28.315Z,100390.10
2023-04-21T20:35:57.130Z,100391.29
2023-04-21T20:38:26.808Z,100388.02
2023-04-21T20:40:57.472Z,100387.15
2023-04-21T20:43:26.826Z,100388.91
2023-04-21T20:45:55.615Z,100391.04
2023-04-21T20:48:25.303Z,100388.02
2023-04-21T20:50:56.108Z,100389.76
2023-04-21T20:53:25.017Z,100386.55
2023-04-21T20:55:54.923Z,100384.59
2023-04-21T20:58:25.075Z,100383.23
2023-04-21T21:00:54.172Z,100383.80
2023-04-21T21:03:23.592Z,100385.16
2023-04-21T21:05:52.921Z,100387.09
2023-04-21T21:08:21.335Z,100384.42
2023-04-21T21:10:49.884Z,100384.52
2023-04-21T21:13:18.136Z,100383.08
2023-04-21T21:15:47.524Z,100385.65
2023-04-21T21:18:16.371Z,100379.02
2023-04-21T21:20:44.941Z,100383.20
2023-04-21T21:23:13.308Z,100381.64
2023-04-21T21:25:42.387Z,100381.88
2023-04-21T21:28:11.676Z,100385.05
2023-04-21T21:30:40.548Z,100382.55
2023-04-21T21:33:09.798Z,100378.74
2023-04-21T21:35:38.938Z,100377.55
2023-04-21T21:38:07.968Z,100380.32
2023-04-21T21:40:36.986Z,100381.50
2023-04-21T21:43:05.564Z,100382.58
2023-04-21T21:45:34.786Z,100380.42
2023-04-21T21:48:04.154Z,100380.23
2023-04-21T21:50:33.139Z,100377.53
2023-04-21T21:53:02.087Z,100379.86
2023-04-21T21:55:31.002Z,100380.11
2023-04-21T21:58:04.153Z,100380.02
2023-04-21T22:00:33.018Z,100380.86
2023-04-21T22:03:02.051Z,100379.14
2023-04-21T22:05:30.704Z,100378.66
2023-04-21T22:07:59.558Z,100380.51
2023-04-21T22:10:28.386Z,100379.30
2023-04-21T22:12:57.161Z,100378.02
2023-04-21T22:15:26.041Z,100380.61
2023-04-21T22:17:55.282Z,100378.94
2023-04-21T22:20:23.506Z,100376.17
2023-04-21T22:22:51.874Z,100377.63
2023-04-21T22:25:27.582Z,100382.39
2023-04-21T22:27:56.999Z,100382.75
2023-04-21T22:30:26.256Z,100387.35
2023-04-21T22:32:55.332Z,100387.58
2023-04-21T22:35:24.362Z,100385.95
2023-04-21T22:37:53.494Z,100386.81
2023-04-21T22:40:22.064Z,100382.77
2023-04-21T22:42:51.351Z,100380.42
2023-04-21T22:45:20.272Z,100379.52
2023-04-21T22:47:50.002Z,100379.70
2023-04-21T22:50:20.393Z,100377.21
2023-04-21T22:52:49.593Z,100379.63
2023-04-21T22:55:18.056Z,100376.66
2023-04-21T22:57:47.067Z,100376.93
2023-04-21T23:00:15.960Z,100378.35
2023-04-21T23:02:45.157Z,100373.23
2023-04-21T23:05:14.446Z,100376.20
2023-04-21T23:07:43.314Z,100375.27
2023-04-21T23:10:12.294Z,100374.08
2023-04-21T23:12:41.700Z,100374.01
2023-04-21T23:15:10.766Z,100371.82
2023-04-21T23:17:39.638Z,100370.91
2023-04-21T23:20:09.133Z,100369.88
2023-04-21T23:22:38.336Z,100370.17
2023-04-21T23:25:07.821Z,100370.80
2023-04-21T23:27:36.865Z,100368.02
2023-04-21T23:30:06.201Z,100367.83
2023-04-21T23:32:35.498Z,100371.16
2023-04-21T23:35:04.738Z,100373.00
2023-04-21T23:37:33.846Z,100367.40
2023-04-21T23:40:03.141Z,100363.73
2023-04-21T23:42:31.546Z,100362.41
2023-04-21T23:45:00.564Z,100362.98
2023-04-21T23:47:29.556Z,100363.69
2023-04-21T23:49:58.891Z,100360.70
2023-04-21T23:52:28.476Z,100364.19
2023-04-21T23:54:56.910Z,100360.16
2023-04-21T23:57:26.446Z,100357.22
2023-04-21T23:59:55.547Z,100358.73
